Mammoth Spring, Arkansas
Current Conditions -  °F | °C
As of 5:22 AM on Monday 22 Dec 2014 (Local Time) from KUNO Reporting Station
Light Rain Light Rain  
Wind Chill: 37°   Ceiling: 800
Heat Index: 42°   Visibility: 7mi
Dew Point: 39°   Wind: 8mph
Humidity: 89%   Direction: 140°SE
Pressure: 29.72"   Gusts: NA
Location:  36.5°N, 91.54°W
Report Text: KUNO 221122Z AUTO 14007KT 7SM -RA OVC008 06/04 A2972 RMK AO2 RAB1054 CIG 006V012 P0001 T00560039 $
Loading
Personal Weather Stations






























Interactive Weather Map New forecast layout! Learn more

10-Day Weather Forecast

Advertisements
Track Severe Weather on mobile